createdAt,value
2023-04-21T00:01:41.107Z,21.63
2023-04-21T00:04:09.711Z,35.37
2023-04-21T00:06:38.109Z,18.10
2023-04-21T00:09:05.783Z,17.80
2023-04-21T00:11:34.912Z,22.70
2023-04-21T00:14:02.894Z,25.50
2023-04-21T00:16:30.995Z,34.80
2023-04-21T00:18:59.247Z,19.60
2023-04-21T00:21:27.111Z,23.27
2023-04-21T00:23:54.920Z,24.53
2023-04-21T00:26:22.681Z,23.63
2023-04-21T00:28:53.710Z,26.30
2023-04-21T00:31:21.869Z,17.77
2023-04-21T00:33:49.654Z,25.50
2023-04-21T00:36:17.438Z,24.40
2023-04-21T00:38:45.166Z,24.43
2023-04-21T00:41:12.817Z,20.43
2023-04-21T00:43:55.586Z,28.67
2023-04-21T00:46:24.643Z,30.80
2023-04-21T00:48:52.317Z,34.83
2023-04-21T00:51:22.260Z,19.77
2023-04-21T00:53:51.056Z,26.30
2023-04-21T00:56:19.138Z,27.80
2023-04-21T00:58:47.129Z,24.23
2023-04-21T01:01:16.811Z,23.30
2023-04-21T01:03:47.638Z,29.43
2023-04-21T01:06:16.130Z,22.57
2023-04-21T01:08:44.110Z,37.33
2023-04-21T01:11:12.103Z,24.97
2023-04-21T01:13:41.568Z,21.83
2023-04-21T01:16:09.650Z,24.10
2023-04-21T01:18:37.484Z,23.73
2023-04-21T01:21:07.520Z,22.43
2023-04-21T01:23:36.992Z,23.70
2023-04-21T01:26:05.016Z,22.83
2023-04-21T01:28:37.122Z,23.40
2023-04-21T01:31:05.768Z,22.33
2023-04-21T01:33:33.527Z,26.10
2023-04-21T01:36:02.354Z,27.90
2023-04-21T01:38:30.362Z,19.10
2023-04-21T01:41:01.556Z,19.30
2023-04-21T01:43:29.422Z,22.33
2023-04-21T01:45:57.924Z,20.93
2023-04-21T01:48:25.983Z,26.40
2023-04-21T01:50:53.713Z,21.37
2023-04-21T01:53:22.037Z,23.27
2023-04-21T01:55:49.808Z,27.60
2023-04-21T01:58:19.739Z,33.70
2023-04-21T02:00:47.460Z,40.13
2023-04-21T02:03:15.888Z,45.83
2023-04-21T02:05:46.942Z,37.73
2023-04-21T02:08:15.233Z,45.03
2023-04-21T02:10:42.907Z,38.13
2023-04-21T02:13:13.314Z,36.83
2023-04-21T02:15:42.639Z,35.43
2023-04-21T02:18:10.864Z,34.00
2023-04-21T02:20:39.694Z,34.53
2023-04-21T02:23:07.667Z,29.77
2023-04-21T02:25:35.482Z,35.13
2023-04-21T02:28:03.657Z,22.70
2023-04-21T02:30:31.406Z,31.50
2023-04-21T02:33:00.743Z,26.50
2023-04-21T02:35:28.698Z,25.57
2023-04-21T02:37:58.581Z,23.77
2023-04-21T02:40:26.358Z,29.93
2023-04-21T02:42:54.168Z,24.87
2023-04-21T02:45:21.994Z,21.40
2023-04-21T02:47:49.931Z,22.73
2023-04-21T02:50:19.345Z,22.43
2023-04-21T02:52:47.354Z,23.67
2023-04-21T02:55:15.149Z,31.00
2023-04-21T02:57:42.882Z,29.23
2023-04-21T03:00:12.455Z,21.90
2023-04-21T03:02:41.504Z,26.33
2023-04-21T03:05:12.606Z,24.23
2023-04-21T03:07:42.588Z,22.03
2023-04-21T03:10:12.161Z,21.00
2023-04-21T03:12:39.926Z,24.13
2023-04-21T03:15:08.059Z,22.40
2023-04-21T03:17:36.274Z,23.73
2023-04-21T03:20:07.966Z,25.70
2023-04-21T03:22:37.763Z,24.40
2023-04-21T03:25:07.944Z,22.70
2023-04-21T03:27:36.076Z,26.00
2023-04-21T03:30:05.334Z,27.33
2023-04-21T03:32:33.859Z,26.03
2023-04-21T03:35:01.551Z,27.20
2023-04-21T03:37:29.537Z,22.60
2023-04-21T03:39:57.850Z,22.47
2023-04-21T03:42:27.115Z,23.30
2023-04-21T03:44:57.507Z,27.50
2023-04-21T03:47:25.551Z,24.83
2023-04-21T03:49:53.318Z,25.80
2023-04-21T03:52:21.156Z,20.80
2023-04-21T03:54:50.272Z,30.90
2023-04-21T03:57:18.344Z,26.50
2023-04-21T03:59:47.345Z,27.47
2023-04-21T04:02:15.137Z,27.03
2023-04-21T04:04:43.593Z,24.53
2023-04-21T04:07:11.873Z,20.43
2023-04-21T04:09:39.724Z,29.10
2023-04-21T04:12:08.345Z,25.90
2023-04-21T04:14:37.375Z,27.80
2023-04-21T04:17:06.476Z,24.83
2023-04-21T04:19:34.208Z,24.90
2023-04-21T04:22:02.102Z,25.30
2023-04-21T04:24:33.646Z,26.47
2023-04-21T04:27:02.940Z,25.43
2023-04-21T04:29:31.506Z,36.87
2023-04-21T04:32:01.662Z,22.30
2023-04-21T04:34:30.945Z,24.57
2023-04-21T04:36:59.119Z,25.50
2023-04-21T04:39:26.931Z,25.77
2023-04-21T04:41:54.844Z,28.40
2023-04-21T04:44:23.586Z,33.20
2023-04-21T04:46:52.930Z,27.77
2023-04-21T04:49:22.219Z,25.60
2023-04-21T04:51:53.037Z,24.77
2023-04-21T04:54:21.718Z,34.03
2023-04-21T04:56:49.587Z,25.77
2023-04-21T04:59:17.721Z,22.07
2023-04-21T05:01:45.994Z,26.30
2023-04-21T05:04:16.816Z,21.70
2023-04-21T05:06:45.489Z,25.23
2023-04-21T05:09:14.795Z,29.27
2023-04-21T05:11:42.487Z,26.67
2023-04-21T05:14:11.039Z,24.93
2023-04-21T05:16:38.924Z,32.10
2023-04-21T05:19:06.642Z,29.63
2023-04-21T05:21:34.790Z,24.10
2023-04-21T05:24:02.479Z,24.70
2023-04-21T05:26:31.831Z,26.17
2023-04-21T05:29:00.093Z,23.50
2023-04-21T05:31:27.925Z,24.80
2023-04-21T05:33:56.071Z,23.03
2023-04-21T05:36:24.868Z,26.23
2023-04-21T05:38:53.968Z,25.37
2023-04-21T05:41:22.626Z,24.67
2023-04-21T05:43:51.860Z,26.30
2023-04-21T05:46:19.670Z,25.20
2023-04-21T05:48:47.518Z,24.00
2023-04-21T05:51:16.554Z,26.00
2023-04-21T05:53:45.526Z,24.07
2023-04-21T05:56:13.854Z,25.53
2023-04-21T05:58:42.117Z,26.30
2023-04-21T06:01:11.367Z,21.40
2023-04-21T06:03:39.292Z,21.73
2023-04-21T06:06:08.052Z,24.27
2023-04-21T06:08:35.780Z,24.83
2023-04-21T06:11:04.409Z,26.90
2023-04-21T06:13:32.253Z,30.77
2023-04-21T06:16:00.260Z,31.90
2023-04-21T06:18:29.326Z,26.47
2023-04-21T06:20:57.087Z,26.80
2023-04-21T06:23:24.834Z,29.80
2023-04-21T06:26:05.117Z,25.60
2023-04-21T06:28:33.366Z,27.93
2023-04-21T06:31:01.754Z,28.73
2023-04-21T06:33:31.413Z,25.07
2023-04-21T06:35:59.304Z,25.23
2023-04-21T06:38:27.193Z,26.80
2023-04-21T06:40:55.127Z,26.40
2023-04-21T06:43:24.596Z,28.57
2023-04-21T06:45:52.313Z,23.90
2023-04-21T06:48:20.827Z,29.00
2023-04-21T06:50:49.862Z,24.73
2023-04-21T06:53:18.068Z,24.20
2023-04-21T06:55:46.007Z,31.77
2023-04-21T06:58:13.865Z,23.63
2023-04-21T07:00:41.616Z,22.87
2023-04-21T07:03:09.910Z,23.20
2023-04-21T07:05:37.798Z,25.83
2023-04-21T07:08:06.921Z,26.33
2023-04-21T07:10:34.842Z,27.23
2023-04-21T07:13:03.102Z,29.53
2023-04-21T07:15:30.958Z,24.43
2023-04-21T07:17:59.509Z,22.10
2023-04-21T07:20:27.453Z,26.77
2023-04-21T07:22:55.088Z,25.17
2023-04-21T07:25:24.800Z,25.27
2023-04-21T07:27:52.702Z,23.53
2023-04-21T07:30:20.555Z,25.03
2023-04-21T07:32:48.598Z,25.50
2023-04-21T07:35:16.805Z,24.93
2023-04-21T07:37:44.662Z,24.40
2023-04-21T07:40:13.162Z,25.47
2023-04-21T07:42:42.282Z,27.03
2023-04-21T07:45:10.844Z,22.07
2023-04-21T07:47:39.032Z,24.90
2023-04-21T07:50:07.920Z,24.13
2023-04-21T07:52:35.944Z,25.97
2023-04-21T07:55:04.055Z,24.77
2023-04-21T07:57:33.835Z,22.50
2023-04-21T08:00:03.265Z,20.70
2023-04-21T08:02:41.954Z,25.00
2023-04-21T08:05:10.273Z,25.50
2023-04-21T08:07:38.160Z,23.67
2023-04-21T08:10:06.577Z,25.83
2023-04-21T08:12:34.281Z,28.07
2023-04-21T08:15:05.918Z,22.13
2023-04-21T08:17:33.761Z,22.70
2023-04-21T08:20:01.566Z,27.83
2023-04-21T08:22:29.794Z,27.60
2023-04-21T08:24:57.574Z,31.83
2023-04-21T08:27:25.315Z,21.80
2023-04-21T08:29:52.979Z,22.10
2023-04-21T08:32:24.663Z,21.63
2023-04-21T08:34:53.574Z,26.83
2023-04-21T08:37:21.808Z,24.63
2023-04-21T08:39:50.776Z,22.33
2023-04-21T08:42:19.005Z,27.17
2023-04-21T08:44:46.820Z,20.97
2023-04-21T08:47:15.475Z,23.43
2023-04-21T08:49:45.680Z,29.40
2023-04-21T08:52:14.509Z,31.27
2023-04-21T08:54:42.347Z,27.00
2023-04-21T08:57:15.363Z,23.27
2023-04-21T08:59:45.225Z,27.63
2023-04-21T09:02:15.218Z,20.67
2023-04-21T09:04:44.056Z,21.30
2023-04-21T09:07:13.796Z,21.67
2023-04-21T09:09:56.511Z,23.70
2023-04-21T09:12:24.961Z,24.03
2023-04-21T09:14:52.606Z,28.53
2023-04-21T09:17:22.931Z,25.03
2023-04-21T09:19:51.948Z,22.00
2023-04-21T09:22:20.982Z,23.67
2023-04-21T09:24:49.482Z,21.23
2023-04-21T09:27:17.875Z,23.87
2023-04-21T09:29:49.411Z,21.27
2023-04-21T09:32:20.469Z,25.10
2023-04-21T09:34:48.527Z,24.70
2023-04-21T09:37:18.745Z,21.27
2023-04-21T09:40:03.382Z,22.80
2023-04-21T09:42:36.109Z,23.97
2023-04-21T09:47:41.114Z,21.03
2023-04-21T09:50:12.522Z,29.27
2023-04-21T09:52:41.371Z,18.53
2023-04-21T09:55:12.422Z,23.73
2023-04-21T09:57:41.022Z,21.27
2023-04-21T10:00:09.731Z,18.40
2023-04-21T10:02:39.658Z,17.80
2023-04-21T10:05:08.495Z,20.27
2023-04-21T10:07:36.432Z,22.63
2023-04-21T10:10:04.504Z,21.23
2023-04-21T10:12:34.365Z,17.87
2023-04-21T10:15:05.543Z,22.03
2023-04-21T10:17:36.602Z,26.33
2023-04-21T10:20:07.879Z,19.67
2023-04-21T10:22:36.205Z,19.33
2023-04-21T10:25:04.933Z,24.37
2023-04-21T10:27:34.940Z,16.80
2023-04-21T10:30:03.188Z,17.00
2023-04-21T10:32:42.409Z,15.97
2023-04-21T10:35:10.853Z,15.50
2023-04-21T10:37:38.623Z,17.70
2023-04-21T10:40:09.976Z,18.30
2023-04-21T10:42:39.094Z,17.30
2023-04-21T10:45:13.967Z,17.37
2023-04-21T10:47:44.058Z,21.60
2023-04-21T10:50:13.422Z,19.10
2023-04-21T10:52:44.629Z,20.53
2023-04-21T10:55:15.950Z,20.10
2023-04-21T10:57:46.172Z,22.43
2023-04-21T11:00:18.059Z,20.03
2023-04-21T11:02:46.072Z,21.83
2023-04-21T11:05:14.567Z,26.23
2023-04-21T11:07:42.939Z,17.07
2023-04-21T11:10:11.763Z,17.33
2023-04-21T11:12:40.286Z,23.53
2023-04-21T11:15:11.116Z,17.63
2023-04-21T11:17:39.817Z,17.60
2023-04-21T11:20:08.720Z,21.87
2023-04-21T11:22:38.107Z,16.73
2023-04-21T11:25:06.447Z,14.07
2023-04-21T11:27:34.140Z,19.50
2023-04-21T11:30:03.788Z,18.33
2023-04-21T11:32:34.671Z,26.83
2023-04-21T11:35:04.580Z,16.90
2023-04-21T11:37:32.693Z,18.63
2023-04-21T11:40:01.114Z,20.10
2023-04-21T11:42:29.929Z,20.97
2023-04-21T11:44:57.828Z,18.43
2023-04-21T11:47:26.820Z,17.40
2023-04-21T11:49:56.739Z,20.20
2023-04-21T11:52:25.479Z,24.00
2023-04-21T11:54:57.840Z,15.93
2023-04-21T11:57:26.314Z,16.33
2023-04-21T11:59:54.175Z,17.00
2023-04-21T12:02:23.870Z,18.90
2023-04-21T12:05:00.296Z,18.73
2023-04-21T12:07:30.620Z,17.07
2023-04-21T12:09:58.756Z,16.57
2023-04-21T12:12:26.668Z,25.07
2023-04-21T12:14:54.580Z,15.43
2023-04-21T12:17:22.447Z,17.10
2023-04-21T12:19:50.739Z,14.37
2023-04-21T12:22:20.259Z,14.30
2023-04-21T12:24:48.003Z,15.90
2023-04-21T12:27:16.145Z,16.83
2023-04-21T12:29:44.224Z,13.80
2023-04-21T12:32:12.158Z,16.43
2023-04-21T12:34:40.136Z,14.00
2023-04-21T12:37:09.015Z,15.30
2023-04-21T12:39:38.084Z,16.47
2023-04-21T12:42:06.402Z,17.10
2023-04-21T12:44:34.665Z,19.13
2023-04-21T12:47:02.583Z,15.33
2023-04-21T12:49:30.950Z,16.20
2023-04-21T12:51:59.130Z,17.03
2023-04-21T12:54:26.941Z,15.57
2023-04-21T12:56:56.121Z,15.47
2023-04-21T12:59:24.291Z,13.40
2023-04-21T13:01:52.250Z,24.53
2023-04-21T13:04:20.455Z,17.30
2023-04-21T13:06:48.901Z,14.43
2023-04-21T13:09:17.219Z,13.37
2023-04-21T13:11:44.890Z,13.50
2023-04-21T13:14:15.817Z,18.83
2023-04-21T13:16:44.070Z,22.03
2023-04-21T13:19:11.735Z,15.53
2023-04-21T13:21:41.586Z,15.50
2023-04-21T13:24:11.253Z,24.33
2023-04-21T13:26:41.075Z,15.00
2023-04-21T13:29:09.116Z,18.17
2023-04-21T13:31:38.409Z,23.37
2023-04-21T13:34:06.412Z,16.30
2023-04-21T13:36:34.197Z,17.00
2023-04-21T13:39:03.733Z,16.37
2023-04-21T13:41:31.568Z,16.07
2023-04-21T13:43:59.326Z,17.63
2023-04-21T13:46:27.518Z,16.17
2023-04-21T13:48:56.643Z,17.17
2023-04-21T13:51:24.346Z,16.73
2023-04-21T13:53:52.120Z,17.50
2023-04-21T13:56:20.231Z,16.97
2023-04-21T13:58:48.144Z,21.43
2023-04-21T14:01:16.004Z,14.57
2023-04-21T14:03:44.089Z,17.30
2023-04-21T14:06:13.363Z,15.20
2023-04-21T14:08:41.251Z,15.77
2023-04-21T14:11:09.476Z,13.17
2023-04-21T14:13:42.507Z,15.90
2023-04-21T14:16:20.402Z,13.27
2023-04-21T14:18:48.080Z,17.07
2023-04-21T14:21:17.352Z,13.10
2023-04-21T14:23:45.606Z,13.77
2023-04-21T14:26:13.510Z,18.63
2023-04-21T14:28:41.615Z,19.80
2023-04-21T14:31:09.432Z,17.40
2023-04-21T14:33:37.729Z,13.70
2023-04-21T14:36:05.536Z,17.40
2023-04-21T14:38:35.809Z,13.20
2023-04-21T14:41:03.759Z,16.73
2023-04-21T14:43:32.519Z,15.70
2023-04-21T14:46:00.595Z,17.30
2023-04-21T14:48:28.440Z,21.40
2023-04-21T14:50:57.808Z,17.17
2023-04-21T14:53:25.924Z,12.80
2023-04-21T14:55:55.220Z,16.40
2023-04-21T14:58:24.194Z,13.57
2023-04-21T15:00:52.522Z,14.73
2023-04-21T15:03:20.652Z,16.37
2023-04-21T15:05:48.475Z,14.23
2023-04-21T15:08:18.460Z,15.77
2023-04-21T15:10:47.627Z,14.10
2023-04-21T15:13:17.045Z,13.60
2023-04-21T15:15:45.435Z,15.20
2023-04-21T15:18:13.114Z,12.67
2023-04-21T15:20:45.580Z,16.40
2023-04-21T15:23:14.122Z,16.27
2023-04-21T15:25:42.401Z,13.07
2023-04-21T15:28:10.290Z,19.27
2023-04-21T15:30:39.953Z,15.70
2023-04-21T15:33:08.044Z,15.60
2023-04-21T15:35:36.305Z,18.00
2023-04-21T15:38:04.764Z,13.40
2023-04-21T15:40:32.522Z,14.33
2023-04-21T15:43:00.388Z,14.90
2023-04-21T15:45:28.210Z,15.33
2023-04-21T15:47:57.427Z,13.70
2023-04-21T15:50:25.657Z,14.77
2023-04-21T15:52:53.716Z,13.13
2023-04-21T15:55:21.604Z,14.63
2023-04-21T15:57:49.328Z,12.40
2023-04-21T16:00:17.380Z,13.50
2023-04-21T16:02:45.291Z,13.73
2023-04-21T16:05:14.658Z,14.03
2023-04-21T16:07:43.486Z,13.40
2023-04-21T16:10:11.849Z,14.83
2023-04-21T16:12:39.682Z,13.80
2023-04-21T16:15:23.043Z,13.07
2023-04-21T16:17:52.308Z,15.80
2023-04-21T16:20:21.860Z,13.93
2023-04-21T16:22:49.880Z,13.10
2023-04-21T16:25:19.132Z,13.73
2023-04-21T16:27:47.148Z,12.63
2023-04-21T16:30:14.931Z,13.33
2023-04-21T16:32:42.767Z,13.30
2023-04-21T16:35:11.700Z,12.20
2023-04-21T16:37:42.547Z,15.10
2023-04-21T16:40:11.461Z,15.20
2023-04-21T16:42:39.499Z,19.13
2023-04-21T16:45:08.029Z,17.33
2023-04-21T16:47:41.288Z,15.33
2023-04-21T16:50:10.362Z,14.93
2023-04-21T16:52:38.413Z,12.60
2023-04-21T16:55:08.121Z,14.87
2023-04-21T16:57:36.231Z,14.73
2023-04-21T17:00:07.322Z,14.03
2023-04-21T17:02:35.332Z,16.33
2023-04-21T17:05:04.037Z,12.47
2023-04-21T17:07:32.647Z,10.90
2023-04-21T17:10:00.579Z,19.23
2023-04-21T17:12:29.918Z,15.70
2023-04-21T17:14:58.032Z,11.70
2023-04-21T17:17:25.710Z,21.53
2023-04-21T17:19:53.694Z,18.40
2023-04-21T17:22:21.931Z,12.90
2023-04-21T17:24:53.684Z,11.50
2023-04-21T17:27:22.541Z,16.10
2023-04-21T17:29:52.152Z,16.13
2023-04-21T17:32:20.089Z,16.03
2023-04-21T17:34:48.130Z,12.73
2023-04-21T17:37:15.920Z,12.60
2023-04-21T17:39:43.861Z,12.30
2023-04-21T17:42:12.105Z,16.63
2023-04-21T17:44:41.029Z,12.70
2023-04-21T17:47:10.459Z,14.90
2023-04-21T17:49:38.632Z,16.93
2023-04-21T17:52:06.508Z,12.90
2023-04-21T17:54:34.229Z,13.33
2023-04-21T17:57:02.738Z,17.10
2023-04-21T17:59:30.628Z,13.33
2023-04-21T18:01:59.136Z,13.30
2023-04-21T18:04:30.927Z,13.30
2023-04-21T18:06:59.606Z,15.73
2023-04-21T18:09:27.369Z,17.57
2023-04-21T18:11:55.394Z,16.60
2023-04-21T18:14:23.678Z,13.03
2023-04-21T18:16:51.649Z,11.97
2023-04-21T18:19:19.705Z,13.73
2023-04-21T18:21:48.858Z,11.13
2023-04-21T18:24:16.698Z,15.23
2023-04-21T18:26:44.906Z,14.00
2023-04-21T18:29:12.593Z,14.27
2023-04-21T18:31:40.819Z,12.53
2023-04-21T18:34:09.080Z,27.63
2023-04-21T18:36:39.033Z,26.60
2023-04-21T18:39:08.021Z,17.73
2023-04-21T18:41:37.107Z,14.70
2023-04-21T18:44:05.734Z,14.27
2023-04-21T18:46:34.040Z,16.17
2023-04-21T18:49:02.050Z,16.97
2023-04-21T18:51:31.519Z,21.90
2023-04-21T18:53:59.374Z,15.80
2023-04-21T18:56:31.340Z,19.53
2023-04-21T18:58:59.199Z,17.00
2023-04-21T19:01:27.031Z,17.13
2023-04-21T19:03:55.347Z,18.70
2023-04-21T19:06:23.215Z,16.03
2023-04-21T19:08:52.801Z,20.27
2023-04-21T19:11:20.896Z,14.83
2023-04-21T19:13:50.021Z,14.17
2023-04-21T19:16:17.762Z,11.50
2023-04-21T19:18:47.465Z,16.07
2023-04-21T19:21:15.268Z,13.43
2023-04-21T19:23:44.395Z,12.10
2023-04-21T19:26:13.464Z,17.60
2023-04-21T19:28:41.528Z,19.67
2023-04-21T19:31:11.043Z,12.53
2023-04-21T19:33:39.370Z,18.20
2023-04-21T19:36:07.411Z,20.30
2023-04-21T19:38:36.117Z,18.47
2023-04-21T19:41:04.182Z,23.33
2023-04-21T19:43:32.118Z,22.40
2023-04-21T19:45:59.938Z,14.57
2023-04-21T19:48:29.124Z,14.80
2023-04-21T19:50:56.991Z,14.77
2023-04-21T19:53:25.007Z,14.73
2023-04-21T19:55:53.005Z,16.20
2023-04-21T19:58:38.304Z,16.90
2023-04-21T20:01:07.809Z,18.83
2023-04-21T20:03:37.818Z,17.73
2023-04-21T20:06:06.198Z,14.07
2023-04-21T20:08:33.991Z,13.70
2023-04-21T20:11:02.277Z,14.17
2023-04-21T20:13:30.055Z,12.43
2023-04-21T20:15:58.176Z,15.30
2023-04-21T20:18:26.164Z,14.23
2023-04-21T20:20:55.235Z,18.03
2023-04-21T20:23:23.388Z,15.57
2023-04-21T20:25:51.918Z,18.50
2023-04-21T20:28:20.530Z,16.97
2023-04-21T20:30:48.248Z,15.57
2023-04-21T20:33:17.326Z,19.40
2023-04-21T20:35:46.073Z,17.70
2023-04-21T20:38:15.911Z,16.57
2023-04-21T20:40:44.229Z,14.67
2023-04-21T20:43:12.275Z,17.17
2023-04-21T20:45:41.196Z,19.23
2023-04-21T20:48:09.791Z,17.40
2023-04-21T20:50:37.636Z,18.00
2023-04-21T20:53:07.372Z,27.77
2023-04-21T20:55:38.303Z,15.60
2023-04-21T20:58:06.002Z,19.20
2023-04-21T21:00:34.527Z,23.70
2023-04-21T21:03:03.815Z,22.87
2023-04-21T21:05:33.399Z,17.70
2023-04-21T21:08:01.198Z,15.10
2023-04-21T21:10:29.263Z,19.00
2023-04-21T21:12:59.571Z,20.57
2023-04-21T21:15:27.833Z,19.10
2023-04-21T21:17:55.788Z,15.20
2023-04-21T21:20:23.490Z,20.13
2023-04-21T21:22:51.260Z,15.53
2023-04-21T21:25:19.134Z,16.87
2023-04-21T21:27:46.993Z,16.60
2023-04-21T21:30:16.320Z,16.60
2023-04-21T21:32:44.393Z,17.43
2023-04-21T21:35:12.207Z,18.47
2023-04-21T21:37:40.418Z,16.90
2023-04-21T21:40:09.234Z,18.73
2023-04-21T21:42:37.271Z,18.93
2023-04-21T21:45:05.329Z,16.10
2023-04-21T21:47:39.430Z,15.57
2023-04-21T21:50:11.162Z,20.87
2023-04-21T21:52:39.352Z,18.13
2023-04-21T21:55:07.795Z,23.50
2023-04-21T21:57:35.921Z,21.43
2023-04-21T22:00:04.083Z,18.03
2023-04-21T22:02:32.837Z,16.77
2023-04-21T22:05:02.003Z,19.00
2023-04-21T22:07:29.990Z,19.50
2023-04-21T22:09:59.647Z,17.40
2023-04-21T22:12:27.829Z,16.03
2023-04-21T22:14:55.648Z,19.93
2023-04-21T22:17:24.893Z,16.30
2023-04-21T22:19:53.699Z,15.40
2023-04-21T22:22:22.915Z,19.90
2023-04-21T22:24:50.940Z,17.00
2023-04-21T22:27:18.739Z,19.50
2023-04-21T22:29:46.891Z,22.20
2023-04-21T22:32:15.099Z,21.17
2023-04-21T22:34:43.173Z,19.37
2023-04-21T22:37:11.085Z,18.73
2023-04-21T22:39:40.552Z,18.87
2023-04-21T22:42:08.569Z,20.47
2023-04-21T22:44:36.652Z,19.50
2023-04-21T22:47:04.642Z,22.60
2023-04-21T22:49:33.128Z,19.20
2023-04-21T22:52:00.826Z,21.27
2023-04-21T22:54:29.492Z,18.27
2023-04-21T22:56:58.587Z,19.40
2023-04-21T22:59:26.327Z,16.90
2023-04-21T23:01:54.310Z,19.23
2023-04-21T23:04:22.105Z,18.30
2023-04-21T23:06:49.820Z,17.30
2023-04-21T23:09:17.947Z,22.83
2023-04-21T23:11:45.602Z,18.30
2023-04-21T23:14:15.178Z,17.53
2023-04-21T23:16:42.911Z,16.20
2023-04-21T23:19:10.749Z,15.30
2023-04-21T23:21:38.938Z,16.80
2023-04-21T23:24:07.063Z,20.37
2023-04-21T23:26:34.708Z,20.60
2023-04-21T23:29:02.932Z,16.07
2023-04-21T23:31:32.402Z,17.60
2023-04-21T23:34:00.628Z,17.80
2023-04-21T23:36:28.856Z,15.90
2023-04-21T23:38:56.532Z,16.03
2023-04-21T23:41:24.406Z,23.93
2023-04-21T23:43:52.505Z,16.10
2023-04-21T23:46:20.260Z,35.13
2023-04-21T23:48:49.680Z,27.40
2023-04-21T23:51:17.727Z,21.40
2023-04-21T23:53:45.608Z,15.93
2023-04-21T23:56:13.345Z,21.97
2023-04-21T23:58:41.480Z,20.03
